Flight Track Log - Related Links

Times and Time Zones

All times are in EDT time to prevent confusion due to time zone crossing. See the CTL13 flight status page for this flight to view local times or setup timezone preferences in your user account.

Time Position Orientation Groundspeed Altitude Reporting Facility
EDT Latitude Longitude Course Direction KTS MPH feet Rate Location/Type
Tue 06:19:35 PM 41.5208 -81.7064 248° West 124 143 1,300  Level Cleveland Center
Tue 06:20:18 PM 41.5458 -81.7178 341° North 125 144 2,100 524 Climbing Cleveland Center
Tue 06:21:18 PM 41.5578 -81.7625 290° West 158 182 2,200 94 Climbing Cleveland Center
Tue 06:22:25 PM 41.5717 -81.8239 287° West 167 192 2,300 516 Climbing Cleveland Center
Tue 06:23:26 PM 41.5733 -81.8794 272° West 126 145 3,300 738 Climbing Cleveland Center
Tue 06:24:27 PM 41.5728 -81.9292 269° West 131 151 3,800 639 Climbing Cleveland Center
Tue 06:25:00 PM 41.3948 -81.9836 248° West  Level FlightAware Approximate
Tue 06:25:28 PM 41.5722 -81.9764 269° West 126 145 4,600  Level Cleveland Center
Tue 06:26:29 PM 41.5550 -82.0150 239° Southwest 126 145 5,200 590 Climbing Cleveland Center
Tue 06:27:30 PM 41.5378 -82.0589 242° Southwest 130 150 5,800 574 Climbing Cleveland Center
Tue 06:28:24 PM 41.5183 -82.0944 234° Southwest 129 148 6,300 626 Climbing Cleveland Center
Tue 06:29:25 PM 41.4992 -82.1383 240° Southwest 129 148 7,000 590 Climbing Cleveland Center
Tue 06:30:26 PM 41.4819 -82.1769 239° Southwest 125 144 7,500 -25 Climbing Cleveland Center
Tue 06:32:00 PM 41.4545 -82.2504 243° Southwest  Level Estimated
Tue 06:39:00 PM 41.3311 -82.5778 243° Southwest  Level Estimated
Tue 06:40:00 PM 41.3134 -82.6245 243° Southwest  Level Estimated
Tue 06:41:00 PM 41.2957 -82.6711 243° Southwest  Level Estimated
Tue 06:42:00 PM 41.2780 -82.7178 243° Southwest  Level Estimated
Tue 06:43:00 PM 41.2602 -82.7644 243° Southwest  Level Estimated
Tue 06:44:00 PM 41.2425 -82.8109 243° Southwest  Level Estimated
Tue 06:45:00 PM 41.2247 -82.8575 243° Southwest  Level Estimated
Tue 06:46:00 PM 41.2068 -82.9040 243° Southwest  Level Estimated
Tue 06:47:00 PM 41.1890 -82.9505 243° Southwest  Level Estimated
Tue 06:48:00 PM 41.1712 -82.9969 243° Southwest  Level Estimated
Tue 06:49:00 PM 41.1533 -83.0434 243° Southwest  Level Estimated
Tue 06:50:00 PM 41.1354 -83.0898 243° Southwest  Level Estimated
Tue 06:51:00 PM 41.1174 -83.1364 243° Southwest  Level Estimated
Tue 06:52:00 PM 41.0947 -83.1789 235° Southwest  Level FlightAware Approximate
Tue 06:53:00 PM 41.0710 -83.2250 237° Southwest  Level FlightAware Approximate
Tue 06:54:00 PM 41.0494 -83.2685 237° Southwest  Level FlightAware Approximate
Tue 06:55:00 PM 41.0278 -83.3120 237° Southwest  Level FlightAware Approximate
Tue 06:56:00 PM 41.0061 -83.3555 237° Southwest  Level FlightAware Approximate
Tue 06:57:00 PM 40.9845 -83.3990 237° Southwest  Level FlightAware Approximate
Tue 06:58:00 PM 40.9628 -83.4424 237° Southwest  Level FlightAware Approximate
Tue 06:59:00 PM 40.9412 -83.4858 237° Southwest  Level FlightAware Approximate
Tue 07:00:00 PM 40.9195 -83.5292 237° Southwest  Level FlightAware Approximate
Tue 07:01:00 PM 40.8978 -83.5725 236° Southwest  Level FlightAware Approximate
Tue 07:01:44 PM 40.8289 -83.5956 235° Southwest 147 169 6,200  Level Indianapolis Center
Tue 07:02:00 PM 40.8760 -83.6159 236° Southwest  Level FlightAware Approximate
Tue 07:02:46 PM 40.8072 -83.6422 238° Southwest 147 169 6,100  Level Indianapolis Center
Tue 07:03:00 PM 40.8543 -83.6592 236° Southwest  Level FlightAware Approximate
Tue 07:03:48 PM 40.7864 -83.6864 238° Southwest 143 165 6,100  Level Indianapolis Center
Tue 07:04:00 PM 40.8325 -83.7024 236° Southwest  Level FlightAware Approximate
Tue 07:04:50 PM 40.7653 -83.7317 238° Southwest 143 165 6,100  Level Indianapolis Center
Tue 07:05:00 PM 40.8107 -83.7457 236° Southwest  Level FlightAware Approximate
Tue 07:05:52 PM 40.7436 -83.7731 235° Southwest 138 159 6,100  Level Indianapolis Center
Tue 07:06:00 PM 40.7890 -83.7888 236° Southwest  Level FlightAware Approximate
Tue 07:06:54 PM 40.7231 -83.8192 240° Southwest 142 163 6,200  Level Indianapolis Center
Tue 07:07:00 PM 40.7665 -83.8314 235° Southwest  Level FlightAware Approximate
Tue 07:07:56 PM 40.6969 -83.8722 237° Southwest 145 167 6,200  Level Indianapolis Center
Tue 07:08:58 PM 40.6769 -83.9186 240° Southwest 145 167 6,200  Level Indianapolis Center
Tue 07:10:00 PM 40.6547 -83.9633 237° Southwest 146 168 6,200  Level Indianapolis Center
Tue 07:11:02 PM 40.6333 -84.0094 239° Southwest 146 168 6,200  Level Indianapolis Center
Tue 07:12:04 PM 40.6119 -84.0539 238° Southwest 146 168 6,200 -44 Level Indianapolis Center
Tue 07:13:18 PM 40.5833 -84.1139 238° Southwest 144 166 6,100 -48 Descending Indianapolis Center
Tue 07:14:09 PM 40.5708 -84.1444 242° Southwest 143 165 6,100  Level Indianapolis Center
Tue 07:15:20 PM 40.5406 -84.2072 238° Southwest 147 169 6,100  Level Indianapolis Center
Tue 07:16:13 PM 40.5236 -84.2419 237° Southwest 144 166 6,100  Level Indianapolis Center
Tue 07:17:15 PM 40.5014 -84.2878 237° Southwest 146 168 6,100  Level Indianapolis Center
Tue 07:18:17 PM 40.4792 -84.3333 237° Southwest 147 169 6,100  Level Indianapolis Center
Tue 07:19:19 PM 40.4583 -84.3808 240° Southwest 147 169 6,100  Level Indianapolis Center
Tue 07:20:21 PM 40.4356 -84.4281 238° Southwest 149 171 6,100  Level Indianapolis Center
Tue 07:21:19 PM 40.4103 -84.4750 235° Southwest 149 171 6,100  Level Indianapolis Center
Tue 07:22:25 PM 40.3853 -84.5275 238° Southwest 150 173 6,100  Level Indianapolis Center
Tue 07:23:27 PM 40.3628 -84.5747 238° Southwest 151 174 6,100  Level Indianapolis Center
Tue 07:24:29 PM 40.3422 -84.6203 239° Southwest 146 168 6,100 48 Level Indianapolis Center
Tue 07:25:31 PM 40.3192 -84.6664 237° Southwest 148 170 6,200  Climbing Indianapolis Center
Tue 07:26:33 PM 40.2975 -84.7117 238° Southwest 147 169 6,100 -48 Descending Indianapolis Center
Tue 07:27:35 PM 40.2717 -84.7622 236° Southwest 147 169 6,100  Level Indianapolis Center
Tue 07:28:30 PM 40.2511 -84.8058 238° Southwest 150 173 6,100  Level Indianapolis Center
Tue 07:29:31 PM 40.2283 -84.8519 237° Southwest 150 173 6,100 50 Level Indianapolis Center
Tue 07:30:31 PM 40.2056 -84.8981 237° Southwest 150 173 6,200  Climbing Indianapolis Center
Tue 07:31:32 PM 40.1831 -84.9411 236° Southwest 147 169 6,100 -45 Descending Indianapolis Center
Tue 07:32:45 PM 40.1586 -84.9892 236° Southwest 146 168 6,100  Level Indianapolis Center
Tue 07:33:47 PM 40.1386 -85.0339 240° Southwest 144 166 6,100  Level Indianapolis Center
Tue 07:34:50 PM 40.1269 -85.0958 256° West 146 168 6,100  Level Indianapolis Center
Tue 07:35:51 PM 40.1142 -85.1461 252° West 146 168 6,100  Level Indianapolis Center
Tue 07:36:53 PM 40.1033 -85.1972 255° West 145 167 6,100  Level Indianapolis Center
Tue 07:37:55 PM 40.0906 -85.2464 251° West 145 167 6,100  Level Indianapolis Center
Tue 07:38:57 PM 40.0783 -85.2986 253° West 147 169 6,100 -242 Level Indianapolis Center
Tue 07:39:59 PM 40.0653 -85.3519 252° West 150 173 5,600 -581 Descending Indianapolis Center
Tue 07:41:01 PM 40.0500 -85.4239 255° West 162 186 4,900 -532 Descending Indianapolis Center
Tue 07:42:03 PM 40.0386 -85.4842 256° West 169 194 4,500 -387 Descending Indianapolis Center
Tue 07:43:05 PM 40.0247 -85.5417 253° West 168 193 4,100 -194 Descending Indianapolis Center
Tue 07:44:07 PM 40.0106 -85.5967 251° West 165 190 4,100 48 Level Indianapolis Center
Tue 07:45:09 PM 39.9981 -85.6486 253° West 158 182 4,200  Climbing Indianapolis Center
Tue 07:46:11 PM 39.9872 -85.7019 255° West 154 177 4,100 -48 Descending Indianapolis Center
Tue 07:47:13 PM 39.9714 -85.7644 252° West 153 176 4,100  Level Indianapolis Center
Tue 07:48:15 PM 39.9558 -85.8156 248° West 152 175 4,100 -242 Level Indianapolis Center
Tue 07:49:17 PM 39.9419 -85.8678 251° West 152 175 3,600 -484 Descending Indianapolis Center
Tue 07:50:19 PM 39.9289 -85.9267 254° West 160 184 3,100 -242 Descending Indianapolis Center
Tue 07:51:21 PM 39.9153 -85.9819 252° West 162 186 3,100 -145 Level Indianapolis Center
Tue 07:52:23 PM 39.9022 -86.0331 252° West 157 181 2,800 -339 Descending Indianapolis Center
Tue 07:53:25 PM 39.8839 -86.0972 250° West 156 180 2,400 -339 Descending Indianapolis Center
Tue 07:54:27 PM 39.8661 -86.1486 246° West 157 181 2,100 -242 Descending Indianapolis Center
Tue 07:55:29 PM 39.8561 -86.2003 256° West 153 176 1,900 -194 Descending Indianapolis Center
Tue 07:56:31 PM 39.8450 -86.2475 253° West 145 167 1,700 -339 Descending Indianapolis Center
Tue 07:57:33 PM 39.8392 -86.2867 259° West 127 146 1,200 -484 Descending Indianapolis Center

Login

Don't have an account? Register now (free) for customized features, flight alerts, and more!